Time;durP1;ratioP1;P1;durP2;ratioP2;P2;SDS_P1;SDS_P2;PMS_P1;PMS_P2;Temp;Humidity;BMP_temperature;BMP_pressure;BME280_temperature;BME280_humidity;BME280_pressure;Samples;Min_cycle;Max_cycle;Signal;HPM_P1;HPM_P2
2022/01/25 00:24:33;;;;;;;52.15;20.33;;;;;;;22.85;13.82;99584.69;5056349;28;20048;-80
2022/01/25 00:27:14;;;;;;;44.65;18.40;;;;;;;22.86;13.97;99587.09;5055522;28;20496;-80
2022/01/25 00:32:14;;;;;;;43.97;18.20;;;;;;;22.88;13.98;99584.69;5055378;28;20033;-80
2022/01/25 00:34:41;;;;;;;41.63;18.02;;;;;;;23.13;13.91;99580.03;5055079;28;20492;-80
2022/01/25 00:37:07;;;;;;;33.92;15.00;;;;;;;23.22;13.23;99568.50;5054837;28;20036;-80
2022/01/25 00:39:37;;;;;;;35.60;14.63;;;;;;;22.74;13.47;99576.19;5059043;28;20112;-80
2022/01/25 00:42:05;;;;;;;34.40;13.73;;;;;;;22.82;13.82;99566.66;5055413;28;20160;-80
2022/01/25 00:44:36;;;;;;;37.28;13.63;;;;;;;22.93;13.74;99575.13;5054614;28;20041;-79
2022/01/25 00:47:02;;;;;;;38.83;15.07;;;;;;;22.99;13.63;99573.56;5053548;28;20032;-80
2022/01/25 00:49:29;;;;;;;29.55;13.00;;;;;;;22.83;13.56;99570.25;5054710;28;20044;-80
2022/01/25 00:56:50;;;;;;;26.67;12.20;;;;;;;22.99;13.47;99565.97;5055608;28;20481;-80
2022/01/25 00:59:23;;;;;;;29.25;12.23;;;;;;;22.49;14.15;99561.19;5055606;28;20033;-80
2022/01/25 01:01:51;;;;;;;29.85;11.82;;;;;;;22.44;14.31;99567.13;5053362;28;20040;-80
2022/01/25 01:04:18;;;;;;;29.98;11.13;;;;;;;22.45;14.26;99561.13;5054305;28;20527;-80
2022/01/25 01:06:46;;;;;;;30.52;12.38;;;;;;;22.79;14.01;99569.44;5054222;28;20114;-80
2022/01/25 01:09:13;;;;;;;29.20;12.13;;;;;;;22.99;13.79;99568.75;5054575;28;20075;-80
2022/01/25 01:11:49;;;;;;;26.25;10.73;;;;;;;23.02;13.62;99565.19;5054455;28;20094;-80
2022/01/25 01:33:37;;;;;;;21.40;8.07;;;;;;;23.74;13.51;99551.09;5054510;28;20040;-81
2022/01/25 01:43:45;;;;;;;28.08;12.40;;;;;;;23.16;13.81;99542.03;5061376;28;20112;-81
2022/01/25 01:48:50;;;;;;;24.73;10.48;;;;;;;22.88;14.27;99539.06;5053708;28;20044;-81
2022/01/25 01:51:27;;;;;;;23.23;10.27;;;;;;;21.65;15.35;99541.56;5054253;28;20112;-81
2022/01/25 01:53:56;;;;;;;29.98;10.60;;;;;;;20.99;16.30;99547.88;5053837;28;20037;-80
2022/01/25 01:56:23;;;;;;;23.33;10.75;;;;;;;21.05;16.33;99540.81;5053643;28;20029;-81
2022/01/25 01:58:52;;;;;;;23.30;10.82;;;;;;;21.15;16.24;99529.78;5053693;28;20029;-80
2022/01/25 02:01:20;;;;;;;26.95;11.23;;;;;;;21.29;16.19;99531.94;5053756;28;20072;-81
2022/01/25 02:03:47;;;;;;;21.40;9.10;;;;;;;20.50;17.22;99525.63;5053850;28;20397;-80
2022/01/25 02:06:13;;;;;;;29.42;12.80;;;;;;;20.57;17.40;99526.53;5053892;28;20396;-81
2022/01/25 02:08:39;;;;;;;23.00;9.90;;;;;;;20.05;18.03;99528.44;5053518;28;20033;-81
2022/01/25 02:11:06;;;;;;;33.10;12.10;;;;;;;19.57;18.64;99516.81;5053372;28;20029;-81
2022/01/25 02:13:32;;;;;;;28.38;11.65;;;;;;;19.62;19.03;99524.88;5053084;28;20380;-81
2022/01/25 02:16:03;;;;;;;24.25;10.15;;;;;;;20.37;18.30;99521.44;5068317;28;20029;-81
2022/01/25 02:23:58;;;;;;;23.90;10.32;;;;;;;21.95;16.58;99509.56;5054233;28;20055;-81
2022/01/25 02:26:24;;;;;;;23.25;10.10;;;;;;;22.01;16.67;99499.63;5053123;28;20157;-81
2022/01/25 02:28:50;;;;;;;24.65;10.60;;;;;;;21.35;17.30;99503.28;5053054;28;20043;-81
2022/01/25 02:31:17;;;;;;;22.88;9.13;;;;;;;20.62;18.07;99505.88;5055363;28;20122;-81
2022/01/25 02:33:45;;;;;;;19.80;9.52;;;;;;;20.96;17.79;99509.53;5073397;28;20020;-81
2022/01/25 02:36:15;;;;;;;23.10;9.90;;;;;;;20.91;17.92;99504.31;5067948;28;20036;-80
2022/01/25 02:38:41;;;;;;;24.10;10.57;;;;;;;21.36;17.66;99512.47;5053582;28;20505;-81
2022/01/25 02:41:07;;;;;;;22.65;11.13;;;;;;;20.73;18.38;99506.84;5053564;28;20496;-81
2022/01/25 02:43:35;;;;;;;21.77;10.15;;;;;;;20.43;18.58;99500.41;5052869;28;20397;-81
2022/01/25 02:46:23;;;;;;;27.55;11.90;;;;;;;20.83;18.52;99503.41;5052751;28;20044;-80
2022/01/25 02:48:59;;;;;;;22.98;9.80;;;;;;;20.78;18.54;99495.34;5053185;28;20036;-80
2022/01/25 02:51:31;;;;;;;26.23;11.63;;;;;;;20.98;18.45;99494.00;5053423;28;20029;-80
2022/01/25 02:53:58;;;;;;;26.58;10.38;;;;;;;20.88;18.38;99494.69;5053227;28;20437;-80
2022/01/25 02:56:26;;;;;;;22.67;10.32;;;;;;;20.88;18.64;99502.25;5057258;28;20484;-80
2022/01/25 02:58:52;;;;;;;19.65;9.50;;;;;;;20.45;19.10;99492.47;5071991;28;20388;-80
2022/01/25 03:01:21;;;;;;;30.23;11.85;;;;;;;20.22;19.45;99488.91;5072806;28;20064;-80
2022/01/25 03:03:47;;;;;;;18.85;8.75;;;;;;;20.12;19.61;99495.09;5072852;28;20028;-80
2022/01/25 03:06:19;;;;;;;20.15;10.07;;;;;;;19.40;20.30;99483.84;5072731;28;20028;-81
2022/01/25 03:08:46;;;;;;;21.42;9.77;;;;;;;19.94;19.73;99475.28;5055602;28;20108;-80
2022/01/25 03:11:12;;;;;;;26.35;10.85;;;;;;;19.79;20.22;99479.00;5053285;28;20400;-80
2022/01/25 03:13:53;;;;;;;23.45;11.05;;;;;;;19.63;20.20;99467.16;5052761;28;20040;-80
2022/01/25 03:16:34;;;;;;;23.92;10.55;;;;;;;19.78;20.50;99478.22;5052958;28;20087;-80
2022/01/25 03:19:04;;;;;;;23.52;10.30;;;;;;;20.89;19.32;99475.94;5052935;28;20048;-80
2022/01/25 03:23:57;;;;;;;24.13;9.35;;;;;;;21.99;17.90;99476.81;5052664;28;20486;-80
2022/01/25 03:26:25;;;;;;;20.67;9.88;;;;;;;22.07;17.96;99474.09;5052521;28;20082;-80
2022/01/25 03:28:52;;;;;;;21.58;10.00;;;;;;;22.25;17.59;99475.84;5053289;28;20041;-80
2022/01/25 03:31:19;;;;;;;20.45;8.93;;;;;;;22.49;17.59;99475.22;5055004;28;20029;-80
2022/01/25 03:33:45;;;;;;;18.77;9.10;;;;;;;22.42;17.56;99475.19;5056768;28;20055;-80
2022/01/25 03:36:12;;;;;;;18.90;8.38;;;;;;;22.81;17.17;99478.22;5071743;28;20036;-80
2022/01/25 03:38:40;;;;;;;18.35;8.65;;;;;;;22.57;17.22;99474.06;5075728;28;20025;-80
2022/01/25 03:41:12;;;;;;;21.65;9.15;;;;;;;22.02;17.88;99464.06;5076204;28;20032;-80
2022/01/25 03:43:39;;;;;;;18.48;7.72;;;;;;;22.34;17.56;99459.50;5076269;28;20122;-80
2022/01/25 03:46:14;;;;;;;17.23;7.93;;;;;;;22.57;17.74;99462.06;5075197;28;20028;-80
2022/01/25 03:51:06;;;;;;;16.17;8.00;;;;;;;22.45;17.75;99474.38;5076334;28;20116;-80
2022/01/25 03:53:33;;;;;;;15.55;7.20;;;;;;;22.83;17.33;99469.44;5075839;28;20094;-80
2022/01/25 03:55:59;;;;;;;18.42;8.93;;;;;;;23.14;17.07;99463.19;5056850;28;20032;-80
2022/01/25 03:58:26;;;;;;;15.73;7.40;;;;;;;23.40;16.75;99460.09;5055620;28;20029;-80
2022/01/25 04:00:52;;;;;;;16.75;7.60;;;;;;;23.65;16.35;99460.94;5056840;28;20029;-80
2022/01/25 04:03:27;;;;;;;16.30;7.80;;;;;;;23.66;16.45;99456.97;5059255;28;20171;-80
2022/01/25 04:05:56;;;;;;;18.50;7.10;;;;;;;23.40;16.69;99457.31;5069130;28;20032;-80
2022/01/25 04:08:22;;;;;;;14.85;7.80;;;;;;;23.48;16.59;99450.50;5067349;28;20032;-80
2022/01/25 04:10:48;;;;;;;15.32;7.53;;;;;;;23.40;16.64;99446.09;5059447;28;20024;-80
2022/01/25 04:13:15;;;;;;;17.52;7.78;;;;;;;23.28;16.92;99444.44;5055325;28;20036;-80
2022/01/25 04:15:46;;;;;;;16.92;8.25;;;;;;;23.41;16.71;99444.09;5055557;28;20037;-80
2022/01/25 04:18:34;;;;;;;;;;;;;;;23.61;16.65;99443.31;5055977;28;20032;-81
2022/01/25 04:21:09;;;;;;;14.15;6.25;;;;;;;23.11;16.88;99441.53;5055891;28;19960;-81
2022/01/25 04:26:20;;;;;;;15.57;7.25;;;;;;;23.33;16.78;99432.03;5056022;28;20132;-80
2022/01/25 04:28:46;;;;;;;17.60;7.18;;;;;;;23.58;16.43;99432.91;5054979;28;20520;-80
2022/01/25 04:31:15;;;;;;;12.07;6.25;;;;;;;23.36;16.67;99434.84;5055106;28;20029;-80
2022/01/25 04:33:54;;;;;;;15.40;7.40;;;;;;;23.10;17.15;99435.16;5055336;28;20025;-80
2022/01/25 04:50:11;;;;;;;14.13;6.78;;;;;;;23.42;17.00;99428.88;5054921;28;20067;-80
2022/01/25 04:52:49;;;;;;;15.30;6.75;;;;;;;23.61;16.74;99418.09;5054833;28;20025;-80
2022/01/25 04:55:30;;;;;;;14.85;6.95;;;;;;;23.62;17.06;99410.50;5062279;28;20033;-80
2022/01/25 04:58:03;;;;;;;17.33;7.85;;;;;;;23.74;16.92;99413.69;5074725;28;20388;-80
2022/01/25 05:00:30;;;;;;;14.60;6.85;;;;;;;23.33;17.22;99413.22;5074662;28;20396;-80
2022/01/25 05:03:07;;;;;;;15.30;7.75;;;;;;;23.52;16.94;99411.28;5074629;28;20025;-80
2022/01/25 05:05:42;;;;;;;24.60;9.85;;;;;;;23.16;17.23;99413.97;5075002;28;20454;-80
2022/01/25 05:08:32;;;;;;;24.90;12.82;;;;;;;22.89;17.62;99417.47;5074579;28;20107;-80
2022/01/25 05:11:06;;;;;;;24.50;11.65;;;;;;;22.27;18.29;99409.09;5073521;28;20059;-80
2022/01/25 05:16:33;;;;;;;16.70;8.35;;;;;;;21.12;19.44;99404.06;5074331;28;20051;-80
2022/01/25 05:24:15;;;;;;;13.35;6.82;;;;;;;21.01;19.86;99400.31;5075044;28;20498;-80
2022/01/25 05:26:42;;;;;;;14.30;7.80;;;;;;;21.18;19.73;99397.75;5073507;28;20103;-80
2022/01/25 05:29:08;;;;;;;21.38;8.75;;;;;;;21.69;19.11;99397.84;5073472;28;20111;-80
2022/01/25 05:31:36;;;;;;;13.57;6.55;;;;;;;21.55;19.33;99394.13;5074060;28;20040;-80
2022/01/25 05:34:02;;;;;;;14.15;6.60;;;;;;;21.34;19.56;99394.72;5055118;28;20082;-80
2022/01/25 05:36:28;;;;;;;15.20;7.20;;;;;;;21.16;19.64;99394.56;5053993;28;20040;-80
2022/01/25 05:38:59;;;;;;;18.27;8.05;;;;;;;20.93;20.09;99393.88;5053948;28;20107;-80
2022/01/25 05:41:28;;;;;;;19.70;7.82;;;;;;;20.19;20.76;99400.38;5053891;28;20037;-80
2022/01/25 05:44:22;;;;;;;12.68;6.40;;;;;;;20.23;20.84;99401.28;5054504;28;20060;-80
2022/01/25 05:47:04;;;;;;;15.85;6.97;;;;;;;20.19;20.99;99392.03;5054324;28;20037;-80
2022/01/25 05:49:35;;;;;;;20.80;8.80;;;;;;;20.27;20.79;99388.19;5056655;28;20041;-80
2022/01/25 05:52:03;;;;;;;18.83;9.85;;;;;;;19.80;21.48;99380.28;5054088;28;20029;-80
2022/01/25 05:54:29;;;;;;;26.40;11.15;;;;;;;20.03;20.92;99386.63;5051165;28;20037;-80
2022/01/25 05:56:55;;;;;;;20.85;10.38;;;;;;;19.66;21.20;99382.84;5054751;28;20071;-80
2022/01/25 05:59:21;;;;;;;22.50;11.65;;;;;;;19.42;21.74;99378.44;5064407;28;20492;-80
2022/01/25 06:01:48;;;;;;;24.85;11.32;;;;;;;18.95;22.18;99375.97;5054095;28;20033;-80
2022/01/25 06:04:15;;;;;;;22.88;10.68;;;;;;;19.33;21.77;99375.06;5053438;28;20032;-80
2022/01/25 06:06:41;;;;;;;20.88;9.75;;;;;;;18.91;22.68;99379.84;5053361;28;20044;-80
2022/01/25 06:09:07;;;;;;;32.80;15.82;;;;;;;20.02;21.40;99374.66;5053403;28;20071;-80
2022/01/25 06:11:34;;;;;;;28.02;12.43;;;;;;;20.52;20.69;99375.38;5053381;28;20028;-80
2022/01/25 06:14:01;;;;;;;37.17;17.73;;;;;;;21.02;19.87;99366.44;5053647;28;20068;-80
2022/01/25 06:16:28;;;;;;;29.55;15.70;;;;;;;21.93;18.83;99354.53;5053472;28;20060;-80
2022/01/25 06:18:55;;;;;;;21.73;10.90;;;;;;;22.31;18.41;99353.19;5052356;28;20473;-80
2022/01/25 06:21:21;;;;;;;23.52;12.18;;;;;;;22.67;18.22;99361.38;5051875;28;20461;-80
2022/01/25 06:23:48;;;;;;;52.03;28.45;;;;;;;22.77;17.99;99356.22;5053234;28;20037;-80
2022/01/25 06:26:14;;;;;;;19.35;9.88;;;;;;;23.01;17.62;99359.06;5053118;28;20040;-80
2022/01/25 06:28:40;;;;;;;19.50;9.60;;;;;;;22.71;17.82;99366.19;5053443;28;20029;-80
2022/01/25 06:31:07;;;;;;;26.95;13.60;;;;;;;22.91;17.90;99359.06;5056873;28;20048;-80
2022/01/25 06:33:34;;;;;;;16.20;8.40;;;;;;;23.17;17.37;99361.53;5073509;28;20033;-80
2022/01/25 06:36:00;;;;;;;17.40;8.70;;;;;;;23.09;17.58;99352.31;5072529;28;20428;-80
2022/01/25 06:38:27;;;;;;;17.52;8.77;;;;;;;22.83;17.77;99358.22;5060599;28;20357;-79
2022/01/25 06:40:54;;;;;;;16.50;7.00;;;;;;;22.38;18.26;99364.41;5073007;28;20478;-80
2022/01/25 06:43:20;;;;;;;16.63;8.38;;;;;;;22.50;18.14;99356.47;5067124;28;20033;-80
2022/01/25 06:45:55;;;;;;;15.60;9.23;;;;;;;22.58;18.26;99351.69;5052620;28;20029;-80
2022/01/25 06:48:22;;;;;;;13.63;7.13;;;;;;;22.65;18.21;99351.75;5052936;28;20079;-80
2022/01/25 06:50:48;;;;;;;17.13;10.05;;;;;;;22.87;17.75;99352.66;5051772;28;20064;-80
2022/01/25 06:53:14;;;;;;;19.58;9.77;;;;;;;22.41;18.39;99353.22;5057531;28;20032;-80
2022/01/25 06:55:41;;;;;;;16.70;8.05;;;;;;;21.49;19.32;99356.56;5073099;28;20112;-79
2022/01/25 06:58:08;;;;;;;22.35;10.43;;;;;;;20.77;20.10;99361.75;5073800;28;20107;-80
2022/01/25 07:00:34;;;;;;;13.40;6.85;;;;;;;20.35;20.66;99354.44;5072901;28;20032;-79
2022/01/25 07:03:00;;;;;;;22.00;11.05;;;;;;;20.43;20.66;99350.56;5073169;28;20028;-80
2022/01/25 07:05:27;;;;;;;17.83;8.65;;;;;;;21.16;19.89;99346.25;5075186;28;20032;-80
2022/01/25 07:07:53;;;;;;;17.40;9.25;;;;;;;20.94;19.94;99353.56;5076711;28;20057;-80
2022/01/25 07:10:20;;;;;;;18.08;9.82;;;;;;;21.04;19.90;99347.34;5063946;28;20068;-79
2022/01/25 07:12:46;;;;;;;17.30;8.57;;;;;;;21.15;20.00;99342.66;5056726;28;20117;-79
2022/01/25 07:15:13;;;;;;;15.10;8.60;;;;;;;21.56;19.52;99342.63;5056656;28;20033;-79
2022/01/25 07:17:40;;;;;;;18.63;8.98;;;;;;;21.46;19.68;99362.91;5056983;28;20032;-80
2022/01/25 07:20:07;;;;;;;17.40;8.93;;;;;;;21.09;20.04;99355.38;5056380;28;20493;-80
2022/01/25 07:22:34;;;;;;;22.33;10.02;;;;;;;21.19;19.83;99349.06;5056162;28;20045;-80
2022/01/25 07:25:01;;;;;;;15.18;7.75;;;;;;;20.18;21.01;99352.19;5056458;28;20035;-80
2022/01/25 07:27:27;;;;;;;20.52;10.32;;;;;;;20.83;20.55;99351.84;5056938;28;20477;-80
2022/01/25 07:29:53;;;;;;;20.15;10.05;;;;;;;21.08;20.14;99353.75;5056024;28;20135;-80
2022/01/25 07:32:19;;;;;;;18.25;8.75;;;;;;;21.23;19.93;99337.94;5056392;28;20400;-80
2022/01/25 07:34:45;;;;;;;19.73;9.68;;;;;;;21.52;19.71;99356.56;5056377;28;20477;-80
2022/01/25 07:37:11;;;;;;;19.33;9.90;;;;;;;21.91;19.19;99340.91;5057582;28;20047;-80
2022/01/25 07:39:38;;;;;;;17.77;9.43;;;;;;;21.61;19.57;99340.28;5071319;28;20473;-80
2022/01/25 07:42:04;;;;;;;22.08;10.07;;;;;;;21.85;19.33;99347.28;5076210;28;20040;-80
2022/01/25 07:44:33;;;;;;;18.45;8.00;;;;;;;21.60;19.56;99351.84;5075209;28;20106;-80
2022/01/25 07:47:01;;;;;;;17.48;8.90;;;;;;;22.07;19.09;99340.66;5074903;28;20043;-80
2022/01/25 07:49:30;;;;;;;17.65;9.48;;;;;;;22.58;18.80;99337.72;5075982;28;20464;-80
2022/01/25 07:51:56;;;;;;;21.10;10.20;;;;;;;22.83;18.20;99340.63;5075787;28;20503;-79
2022/01/25 07:54:23;;;;;;;18.35;10.27;;;;;;;23.09;17.91;99338.31;5060668;28;20436;-80
2022/01/25 07:56:49;;;;;;;18.85;8.88;;;;;;;22.97;18.21;99335.06;5055937;28;20037;-80
2022/01/25 07:59:17;;;;;;;20.33;10.25;;;;;;;22.50;18.61;99341.66;5054683;28;20040;-79
2022/01/25 08:01:43;;;;;;;20.17;10.13;;;;;;;22.31;18.81;99330.78;5056324;28;20040;-80
2022/01/25 08:04:10;;;;;;;15.23;7.50;;;;;;;22.22;19.07;99336.72;5055797;28;20473;-80
2022/01/25 08:06:37;;;;;;;18.13;8.68;;;;;;;22.40;18.96;99329.25;5055339;28;20440;-80
2022/01/25 08:09:05;;;;;;;15.93;8.45;;;;;;;22.38;19.05;99330.84;5055556;28;20472;-80
2022/01/25 08:11:32;;;;;;;16.38;9.00;;;;;;;21.93;19.37;99335.78;5055649;28;20550;-80
2022/01/25 08:14:12;;;;;;;17.05;8.48;;;;;;;22.53;18.67;99338.88;5055549;28;20500;-80
2022/01/25 08:16:46;;;;;;;16.95;8.15;;;;;;;22.77;18.61;99336.59;5055058;28;20029;-80
2022/01/25 08:19:13;;;;;;;17.00;9.10;;;;;;;22.30;18.91;99332.78;5055165;28;20037;-80
2022/01/25 08:21:42;;;;;;;16.42;8.68;;;;;;;22.36;19.16;99341.59;5054293;28;20100;-80
2022/01/25 08:24:11;;;;;;;16.80;8.70;;;;;;;22.64;18.77;99345.34;5055662;28;20149;-80
2022/01/25 08:26:37;;;;;;;20.27;9.43;;;;;;;22.26;19.26;99339.56;5054088;28;20507;-80
2022/01/25 08:29:04;;;;;;;23.65;11.52;;;;;;;21.96;19.42;99337.75;5055127;28;20036;-80
2022/01/25 08:31:31;;;;;;;21.23;9.75;;;;;;;22.41;19.32;99335.63;5055403;28;20072;-80
2022/01/25 08:33:57;;;;;;;18.95;10.07;;;;;;;22.29;19.13;99336.75;5066382;28;20025;-80
2022/01/25 08:36:24;;;;;;;17.67;9.13;;;;;;;22.04;19.38;99341.41;5051626;28;20312;-80
2022/01/25 08:38:50;;;;;;;17.77;9.88;;;;;;;22.11;19.31;99330.28;5069813;28;20064;-80
2022/01/25 08:41:17;;;;;;;24.00;12.15;;;;;;;21.29;20.04;99331.63;5075134;28;20040;-80
2022/01/25 08:43:43;;;;;;;18.85;9.88;;;;;;;21.15;20.31;99331.50;5075009;28;20116;-80
2022/01/25 08:46:10;;;;;;;17.55;9.77;;;;;;;21.57;20.22;99330.25;5074998;28;20037;-80
2022/01/25 08:48:36;;;;;;;18.83;10.38;;;;;;;21.73;20.00;99331.59;5074808;28;20435;-80
2022/01/25 08:51:04;;;;;;;20.95;10.45;;;;;;;21.91;19.76;99321.34;5072244;28;20040;-80
2022/01/25 08:53:30;;;;;;;18.65;9.30;;;;;;;21.99;19.65;99328.59;5054955;28;20033;-80
2022/01/25 08:55:56;;;;;;;19.73;9.38;;;;;;;22.10;19.56;99320.25;5058969;28;20103;-80
2022/01/25 08:58:22;;;;;;;15.82;7.95;;;;;;;21.96;19.87;99321.00;5072701;28;20485;-80
2022/01/25 09:00:48;;;;;;;17.88;9.75;;;;;;;21.80;19.99;99326.03;5065699;28;20112;-80
2022/01/25 09:03:15;;;;;;;25.17;13.63;;;;;;;21.59;20.17;99323.09;5053212;28;20048;-80
2022/01/25 09:05:41;;;;;;;17.73;10.15;;;;;;;21.88;19.96;99329.72;5054378;28;20029;-80
2022/01/25 09:08:07;;;;;;;20.40;10.38;;;;;;;22.24;19.47;99325.16;5057666;28;20388;-80
2022/01/25 09:10:34;;;;;;;14.25;8.02;;;;;;;22.06;19.64;99324.25;5074584;28;20040;-80
2022/01/25 09:13:02;;;;;;;18.00;9.25;;;;;;;22.32;19.78;99333.19;5074447;28;20024;-80
2022/01/25 09:15:28;;;;;;;18.50;9.30;;;;;;;21.11;20.53;99333.44;5075028;28;20076;-80
2022/01/25 09:17:54;;;;;;;16.70;9.38;;;;;;;21.73;20.31;99339.16;5074084;28;20029;-80
2022/01/25 09:20:20;;;;;;;17.08;8.63;;;;;;;21.23;20.62;99341.56;5074468;28;20024;-80
2022/01/25 09:22:46;;;;;;;18.02;9.90;;;;;;;20.20;21.82;99346.25;5074574;28;20055;-80
2022/01/25 09:25:13;;;;;;;20.60;11.68;;;;;;;20.68;21.50;99336.91;5073339;28;20506;-80
2022/01/25 09:27:40;;;;;;;23.00;11.88;;;;;;;21.15;21.01;99330.69;5054827;28;20126;-80
2022/01/25 09:30:06;;;;;;;25.73;11.95;;;;;;;21.26;20.69;99329.59;5054088;28;20388;-80
2022/01/25 09:32:32;;;;;;;22.35;11.23;;;;;;;21.95;20.11;99325.00;5053871;28;20048;-80
2022/01/25 09:34:59;;;;;;;23.70;11.88;;;;;;;22.34;19.88;99330.81;5053982;28;20025;-80
2022/01/25 09:37:25;;;;;;;23.05;13.52;;;;;;;22.50;19.48;99316.47;5054012;28;20139;-80
2022/01/25 09:39:51;;;;;;;22.02;11.57;;;;;;;23.02;19.17;99312.25;5053955;28;20108;-79
2022/01/25 09:42:17;;;;;;;21.50;11.35;;;;;;;22.98;19.12;99291.84;5054417;28;20512;-80
2022/01/25 09:44:43;;;;;;;22.05;12.40;;;;;;;23.28;18.91;99297.91;5053903;28;20029;-80
2022/01/25 09:47:10;;;;;;;19.45;11.93;;;;;;;23.19;18.84;99303.09;5053548;28;20041;-80
2022/01/25 09:49:37;;;;;;;24.48;14.00;;;;;;;23.22;18.77;99307.91;5054099;28;20041;-80
2022/01/25 09:52:06;;;;;;;19.02;10.85;;;;;;;22.82;19.26;99305.44;5054081;28;20033;-79
2022/01/25 09:54:34;;;;;;;22.45;11.75;;;;;;;22.64;19.37;99300.56;5053629;28;20041;-80
2022/01/25 09:57:01;;;;;;;16.92;10.85;;;;;;;21.90;20.18;99300.19;5053689;28;20036;-79
2022/01/25 09:59:28;;;;;;;18.10;11.77;;;;;;;22.59;19.80;99291.75;5053303;28;20039;-80
2022/01/25 10:01:55;;;;;;;22.25;9.50;;;;;;;23.58;18.74;99303.94;5053321;28;20430;-80
2022/01/25 10:04:36;;;;;;;18.13;9.55;;;;;;;24.32;17.88;99305.84;5053531;28;20072;-80
2022/01/25 10:07:05;;;;;;;21.95;10.52;;;;;;;24.35;17.81;99305.00;5053638;28;20036;-80
2022/01/25 10:09:32;;;;;;;18.73;9.63;;;;;;;24.19;17.93;99302.66;5053774;28;20178;-80
2022/01/25 10:12:15;;;;;;;19.85;10.88;;;;;;;23.36;18.71;99308.72;5053472;28;20037;-80
2022/01/25 10:14:58;;;;;;;15.82;8.75;;;;;;;22.18;20.13;99310.72;5053683;28;20586;-80
2022/01/25 10:17:33;;;;;;;18.55;10.30;;;;;;;22.01;20.39;99322.63;5053695;28;20037;-79
2022/01/25 10:19:59;;;;;;;19.38;9.95;;;;;;;21.94;20.30;99314.19;5053756;28;20083;-80
2022/01/25 10:22:26;;;;;;;16.23;8.95;;;;;;;22.50;19.78;99302.47;5053015;28;20079;-80
2022/01/25 10:24:52;;;;;;;18.05;9.15;;;;;;;20.45;21.77;99311.13;5053523;28;20029;-80
2022/01/25 10:30:09;;;;;;;14.13;7.95;;;;;;;20.91;21.60;99300.50;5052495;28;20037;-80
2022/01/25 10:32:38;;;;;;;20.70;11.68;;;;;;;20.75;21.64;99292.34;5051919;28;20115;-80
2022/01/25 10:35:13;;;;;;;19.27;9.38;;;;;;;21.08;21.52;99286.75;5053724;28;20495;-80
2022/01/25 10:37:41;;;;;;;19.65;9.13;;;;;;;21.05;21.56;99295.09;5060901;28;20064;-80
2022/01/25 10:40:08;;;;;;;20.17;10.00;;;;;;;20.60;21.70;99294.19;5056577;28;20025;-80
2022/01/25 10:42:35;;;;;;;21.85;11.32;;;;;;;20.91;21.62;99281.75;5053004;28;20029;-80
2022/01/25 10:45:09;;;;;;;22.42;10.40;;;;;;;21.47;21.03;99277.91;5052937;28;20480;-80
2022/01/25 10:47:46;;;;;;;18.27;10.27;;;;;;;21.65;20.80;99278.81;5053247;28;20423;-79
2022/01/25 10:50:19;;;;;;;21.98;10.45;;;;;;;22.34;20.28;99260.03;5051526;28;20033;-81
2022/01/25 10:52:46;;;;;;;22.50;10.85;;;;;;;22.69;19.69;99261.00;5068661;28;20055;-80
2022/01/25 10:55:14;;;;;;;20.40;9.93;;;;;;;22.12;20.36;99256.38;5066655;28;20606;-80
2022/01/25 10:57:40;;;;;;;16.65;8.90;;;;;;;21.65;20.90;99268.44;5072844;28;20036;-80
2022/01/25 11:00:13;;;;;;;16.20;8.90;;;;;;;21.63;20.78;99265.25;5067836;28;20029;-80
2022/01/25 11:02:50;;;;;;;20.02;10.15;;;;;;;21.51;20.98;99253.56;5053024;28;20523;-80
2022/01/25 11:05:18;;;;;;;17.70;9.55;;;;;;;21.78;20.57;99257.72;5051544;28;20044;-80
2022/01/25 11:07:46;;;;;;;21.17;10.77;;;;;;;21.28;21.11;99267.78;5063767;28;20025;-81
2022/01/25 11:10:20;;;;;;;19.30;10.82;;;;;;;21.23;21.30;99256.94;5052927;28;20033;-81
2022/01/25 11:13:02;;;;;;;19.15;10.52;;;;;;;21.27;21.16;99255.78;5061676;28;20029;-80
2022/01/25 11:15:28;;;;;;;16.40;9.63;;;;;;;21.05;21.40;99256.78;5066323;28;20032;-80
2022/01/25 11:17:54;;;;;;;17.63;10.10;;;;;;;21.28;21.19;99248.22;5073133;28;20032;-80
2022/01/25 11:20:20;;;;;;;18.70;9.73;;;;;;;20.99;21.61;99246.31;5072444;28;20033;-81
2022/01/25 11:22:47;;;;;;;22.65;12.70;;;;;;;21.14;21.52;99237.72;5072968;28;20078;-81
2022/01/25 11:25:18;;;;;;;17.05;9.13;;;;;;;21.57;20.92;99236.03;5061537;28;20503;-80
2022/01/25 11:27:45;;;;;;;15.25;8.68;;;;;;;21.77;20.85;99228.19;5052570;28;20033;-80
2022/01/25 11:30:16;;;;;;;20.38;10.95;;;;;;;21.63;21.11;99220.53;5052573;28;20159;-81
2022/01/25 11:32:45;;;;;;;17.58;8.55;;;;;;;21.37;21.31;99231.13;5052702;28;20370;-81
2022/01/25 11:35:14;;;;;;;23.48;11.05;;;;;;;21.62;21.09;99218.09;5052627;28;20477;-81
2022/01/25 11:37:44;;;;;;;19.67;10.13;;;;;;;21.61;20.98;99213.72;5052911;28;20033;-81
2022/01/25 11:40:47;;;;;;;18.92;10.82;;;;;;;21.02;21.67;99200.88;5052551;28;20029;-80
2022/01/25 11:43:15;;;;;;;25.92;13.25;;;;;;;21.42;21.39;99194.44;5051869;28;20045;-81
2022/01/25 11:45:45;;;;;;;21.52;10.88;;;;;;;21.43;21.52;99188.44;5052593;28;20512;-81
2022/01/25 11:48:11;;;;;;;22.93;11.57;;;;;;;20.48;22.32;99171.69;5052573;28;20067;-81
2022/01/25 11:50:40;;;;;;;29.67;12.65;;;;;;;20.18;22.72;99187.69;5071320;28;20044;-81
2022/01/25 11:53:09;;;;;;;29.80;12.57;;;;;;;19.89;23.05;99178.16;5075778;28;20449;-81
2022/01/25 11:55:41;;;;;;;25.17;12.20;;;;;;;20.45;22.85;99188.38;5075970;28;20086;-81
2022/01/25 11:58:15;;;;;;;21.83;9.90;;;;;;;20.33;22.82;99183.88;5072430;28;20021;-81
2022/01/25 12:00:44;;;;;;;19.65;10.27;;;;;;;20.08;23.00;99180.00;5059989;28;20074;-80
2022/01/25 12:03:33;;;;;;;16.98;9.23;;;;;;;20.19;23.05;99183.69;5061808;28;20033;-81
2022/01/25 12:06:02;;;;;;;20.27;9.57;;;;;;;19.79;23.44;99178.06;5055862;28;20122;-81
2022/01/25 12:11:31;;;;;;;18.60;9.55;;;;;;;20.78;22.14;99171.56;5051075;28;20451;-80
2022/01/25 12:14:19;;;;;;;21.00;10.88;;;;;;;19.27;23.81;99168.56;5055643;28;20029;-81
2022/01/25 12:16:57;;;;;;;19.52;9.48;;;;;;;19.66;23.71;99174.69;5056041;28;20037;-81
2022/01/25 12:19:54;;;;;;;22.15;11.13;;;;;;;19.06;24.34;99173.78;5055489;28;20033;-81
2022/01/25 12:22:35;;;;;;;19.35;9.73;;;;;;;19.33;24.15;99180.97;5055625;28;20055;-81
2022/01/25 12:27:59;;;;;;;22.67;11.23;;;;;;;20.02;23.12;99162.78;5075586;28;20051;-81
2022/01/25 12:30:39;;;;;;;21.23;11.43;;;;;;;19.71;23.25;99156.84;5075385;28;20116;-80
2022/01/25 12:33:22;;;;;;;19.20;10.10;;;;;;;18.70;24.71;99179.13;5064268;28;20041;-81
2022/01/25 12:36:00;;;;;;;23.50;10.55;;;;;;;20.21;22.96;99170.16;5055568;28;20092;-81
2022/01/25 12:38:38;;;;;;;25.98;11.10;;;;;;;19.92;23.03;99165.47;5055540;28;20037;-81
2022/01/25 12:41:08;;;;;;;20.90;10.43;;;;;;;20.77;22.14;99169.19;5055008;28;20075;-81
2022/01/25 12:43:38;;;;;;;22.63;11.45;;;;;;;19.87;22.96;99166.59;5055352;28;20021;-81
2022/01/25 12:46:21;;;;;;;17.92;9.25;;;;;;;20.09;22.82;99156.50;5055400;28;20039;-81
2022/01/25 12:48:59;;;;;;;25.48;11.95;;;;;;;20.38;22.57;99155.66;5055550;28;20037;-81
2022/01/25 12:51:33;;;;;;;24.10;12.90;;;;;;;20.67;22.24;99160.31;5055053;28;20028;-81
2022/01/25 12:54:02;;;;;;;27.13;12.73;;;;;;;21.01;21.50;99160.19;5055300;28;20063;-81
2022/01/25 12:56:34;;;;;;;23.75;12.88;;;;;;;20.11;22.47;99153.34;5053355;28;20055;-81
2022/01/25 12:59:08;;;;;;;22.88;11.43;;;;;;;20.27;22.56;99163.13;5055155;28;20037;-81
2022/01/25 13:01:37;;;;;;;19.35;10.07;;;;;;;20.12;22.64;99157.75;5054805;28;20036;-81
2022/01/25 13:04:05;;;;;;;26.30;12.05;;;;;;;19.20;23.67;99173.22;5070071;28;20040;-81
2022/01/25 13:06:33;;;;;;;24.75;12.60;;;;;;;18.29;24.87;99159.31;5073730;28;20041;-81
2022/01/25 13:11:29;;;;;;;17.27;9.63;;;;;;;19.86;23.10;99176.13;5074620;28;20516;-82
2022/01/25 13:14:03;;;;;;;20.08;10.48;;;;;;;20.14;22.73;99172.88;5074794;28;20040;-82
2022/01/25 13:16:42;;;;;;;20.27;9.35;;;;;;;20.39;22.32;99178.78;5074457;28;20098;-82
2022/01/25 13:19:09;;;;;;;19.35;10.00;;;;;;;20.14;22.74;99172.09;5072897;28;20496;-82